sensor_id;sensor_type;location;lat;lon;timestamp;temperature;humidity
64226;DHT22;50545;56.064;26.178;2023-02-28T00:01:23;-5.60;99.90
64226;DHT22;50545;56.064;26.178;2023-02-28T00:03:51;-5.50;99.90
64226;DHT22;50545;56.064;26.178;2023-02-28T00:06:19;-5.40;99.90
64226;DHT22;50545;56.064;26.178;2023-02-28T00:08:47;-5.20;99.90
64226;DHT22;50545;56.064;26.178;2023-02-28T00:11:15;-5.10;99.90
64226;DHT22;50545;56.064;26.178;2023-02-28T00:13:45;-5.00;99.90
64226;DHT22;50545;56.064;26.178;2023-02-28T00:16:21;-5.00;99.90
64226;DHT22;50545;56.064;26.178;2023-02-28T00:18:49;-5.10;99.90
64226;DHT22;50545;56.064;26.178;2023-02-28T00:21:18;-5.20;99.90
64226;DHT22;50545;56.064;26.178;2023-02-28T00:23:45;-5.30;99.90
64226;DHT22;50545;56.064;26.178;2023-02-28T00:26:13;-5.40;99.90
64226;DHT22;50545;56.064;26.178;2023-02-28T00:28:40;-5.40;99.90
64226;DHT22;50545;56.064;26.178;2023-02-28T00:31:07;-5.40;99.90
64226;DHT22;50545;56.064;26.178;2023-02-28T00:33:34;-5.40;99.90
64226;DHT22;50545;56.064;26.178;2023-02-28T00:36:11;-5.30;99.90
64226;DHT22;50545;56.064;26.178;2023-02-28T00:38:39;-5.30;99.90
64226;DHT22;50545;56.064;26.178;2023-02-28T00:41:07;-5.20;99.90
64226;DHT22;50545;56.064;26.178;2023-02-28T00:43:36;-5.20;99.90
64226;DHT22;50545;56.064;26.178;2023-02-28T00:46:04;-5.30;99.90
64226;DHT22;50545;56.064;26.178;2023-02-28T00:48:32;-5.40;99.90
64226;DHT22;50545;56.064;26.178;2023-02-28T00:51:00;-5.40;99.90
64226;DHT22;50545;56.064;26.178;2023-02-28T00:53:28;-5.50;99.90
64226;DHT22;50545;56.064;26.178;2023-02-28T00:55:55;-5.50;99.90
64226;DHT22;50545;56.064;26.178;2023-02-28T00:58:23;-5.60;99.90
64226;DHT22;50545;56.064;26.178;2023-02-28T01:00:51;-5.50;99.90
64226;DHT22;50545;56.064;26.178;2023-02-28T01:03:20;-5.60;99.90
64226;DHT22;50545;56.064;26.178;2023-02-28T01:05:48;-5.50;99.90
64226;DHT22;50545;56.064;26.178;2023-02-28T01:08:15;-5.50;99.90
64226;DHT22;50545;56.064;26.178;2023-02-28T01:10:42;-5.50;99.90
64226;DHT22;50545;56.064;26.178;2023-02-28T01:13:10;-5.50;99.90
64226;DHT22;50545;56.064;26.178;2023-02-28T01:15:41;-5.50;99.90
64226;DHT22;50545;56.064;26.178;2023-02-28T01:18:10;-5.50;99.90
64226;DHT22;50545;56.064;26.178;2023-02-28T01:20:38;-5.50;99.90
64226;DHT22;50545;56.064;26.178;2023-02-28T01:23:05;-5.60;99.90
64226;DHT22;50545;56.064;26.178;2023-02-28T01:25:35;-5.60;99.90
64226;DHT22;50545;56.064;26.178;2023-02-28T01:28:02;-5.70;99.90
64226;DHT22;50545;56.064;26.178;2023-02-28T01:30:30;-5.70;99.90
64226;DHT22;50545;56.064;26.178;2023-02-28T01:32:58;-5.80;99.90
64226;DHT22;50545;56.064;26.178;2023-02-28T01:35:26;-5.80;99.90
64226;DHT22;50545;56.064;26.178;2023-02-28T01:37:53;-5.80;99.90
64226;DHT22;50545;56.064;26.178;2023-02-28T01:40:21;-5.90;99.90
64226;DHT22;50545;56.064;26.178;2023-02-28T01:42:49;-5.90;99.90
64226;DHT22;50545;56.064;26.178;2023-02-28T01:45:26;-5.90;99.90
64226;DHT22;50545;56.064;26.178;2023-02-28T01:48:03;-5.90;99.90
64226;DHT22;50545;56.064;26.178;2023-02-28T01:50:35;-5.90;99.90
64226;DHT22;50545;56.064;26.178;2023-02-28T01:53:06;-5.90;99.90
64226;DHT22;50545;56.064;26.178;2023-02-28T01:55:34;-5.80;99.90
64226;DHT22;50545;56.064;26.178;2023-02-28T01:58:04;-5.70;99.90
64226;DHT22;50545;56.064;26.178;2023-02-28T02:00:32;-5.60;99.90
64226;DHT22;50545;56.064;26.178;2023-02-28T02:03:06;-5.50;99.90
64226;DHT22;50545;56.064;26.178;2023-02-28T02:05:37;-5.40;99.90
64226;DHT22;50545;56.064;26.178;2023-02-28T02:08:11;-5.30;99.90
64226;DHT22;50545;56.064;26.178;2023-02-28T02:10:56;-5.20;99.90
64226;DHT22;50545;56.064;26.178;2023-02-28T02:13:54;-5.20;99.90
64226;DHT22;50545;56.064;26.178;2023-02-28T02:16:45;-5.10;99.90
64226;DHT22;50545;56.064;26.178;2023-02-28T02:22:25;-5.00;99.90
64226;DHT22;50545;56.064;26.178;2023-02-28T02:25:32;-5.00;99.90
64226;DHT22;50545;56.064;26.178;2023-02-28T02:31:22;-4.80;99.90
64226;DHT22;50545;56.064;26.178;2023-02-28T02:42:25;-4.40;99.90
64226;DHT22;50545;56.064;26.178;2023-02-28T02:45:44;-4.40;99.90
64226;DHT22;50545;56.064;26.178;2023-02-28T02:48:16;-4.40;99.90
64226;DHT22;50545;56.064;26.178;2023-02-28T02:50:49;-4.40;99.90
64226;DHT22;50545;56.064;26.178;2023-02-28T02:53:21;-4.40;99.90
64226;DHT22;50545;56.064;26.178;2023-02-28T02:55:53;-4.40;99.90
64226;DHT22;50545;56.064;26.178;2023-02-28T02:58:31;-4.40;99.90
64226;DHT22;50545;56.064;26.178;2023-02-28T03:01:02;-4.50;99.90
64226;DHT22;50545;56.064;26.178;2023-02-28T03:03:33;-4.50;99.90
64226;DHT22;50545;56.064;26.178;2023-02-28T03:06:01;-4.50;99.90
64226;DHT22;50545;56.064;26.178;2023-02-28T03:08:35;-4.50;99.90
64226;DHT22;50545;56.064;26.178;2023-02-28T03:11:06;-4.50;99.90
64226;DHT22;50545;56.064;26.178;2023-02-28T03:19:33;-4.40;99.90
64226;DHT22;50545;56.064;26.178;2023-02-28T03:30:09;-4.30;99.90
64226;DHT22;50545;56.064;26.178;2023-02-28T03:32:42;-4.30;99.90
64226;DHT22;50545;56.064;26.178;2023-02-28T03:35:19;-4.30;99.90
64226;DHT22;50545;56.064;26.178;2023-02-28T03:37:55;-4.30;99.90
64226;DHT22;50545;56.064;26.178;2023-02-28T03:40:28;-4.30;99.90
64226;DHT22;50545;56.064;26.178;2023-02-28T03:43:01;-4.30;99.90
64226;DHT22;50545;56.064;26.178;2023-02-28T03:45:33;-4.30;99.90
64226;DHT22;50545;56.064;26.178;2023-02-28T03:48:27;-4.30;99.90
64226;DHT22;50545;56.064;26.178;2023-02-28T03:50:55;-4.30;99.90
64226;DHT22;50545;56.064;26.178;2023-02-28T03:53:32;-4.30;99.90
64226;DHT22;50545;56.064;26.178;2023-02-28T03:56:17;-4.30;99.90
64226;DHT22;50545;56.064;26.178;2023-02-28T03:58:51;-4.20;99.90
64226;DHT22;50545;56.064;26.178;2023-02-28T04:03:54;-4.10;99.90
64226;DHT22;50545;56.064;26.178;2023-02-28T04:06:23;-4.10;99.90
64226;DHT22;50545;56.064;26.178;2023-02-28T04:08:50;-4.00;99.90
64226;DHT22;50545;56.064;26.178;2023-02-28T04:11:24;-4.00;99.90
64226;DHT22;50545;56.064;26.178;2023-02-28T04:13:55;-3.90;99.90
64226;DHT22;50545;56.064;26.178;2023-02-28T04:16:22;-3.90;99.90
64226;DHT22;50545;56.064;26.178;2023-02-28T04:19:05;-3.90;99.90
64226;DHT22;50545;56.064;26.178;2023-02-28T04:21:35;-3.80;99.90
64226;DHT22;50545;56.064;26.178;2023-02-28T04:24:03;-3.70;99.90
64226;DHT22;50545;56.064;26.178;2023-02-28T04:26:32;-3.70;99.90
64226;DHT22;50545;56.064;26.178;2023-02-28T04:29:00;-3.60;99.90
64226;DHT22;50545;56.064;26.178;2023-02-28T04:31:28;-3.50;99.90
64226;DHT22;50545;56.064;26.178;2023-02-28T04:33:56;-3.40;99.90
64226;DHT22;50545;56.064;26.178;2023-02-28T04:36:23;-3.40;99.90
64226;DHT22;50545;56.064;26.178;2023-02-28T04:38:51;-3.30;99.90
64226;DHT22;50545;56.064;26.178;2023-02-28T04:41:19;-3.20;99.90
64226;DHT22;50545;56.064;26.178;2023-02-28T04:43:47;-3.10;99.90
64226;DHT22;50545;56.064;26.178;2023-02-28T04:46:14;-3.00;99.90
64226;DHT22;50545;56.064;26.178;2023-02-28T04:48:42;-2.90;99.90
64226;DHT22;50545;56.064;26.178;2023-02-28T04:51:12;-2.80;99.90
64226;DHT22;50545;56.064;26.178;2023-02-28T04:53:41;-2.70;99.90
64226;DHT22;50545;56.064;26.178;2023-02-28T04:56:12;-2.60;99.90
64226;DHT22;50545;56.064;26.178;2023-02-28T04:58:39;-2.50;99.90
64226;DHT22;50545;56.064;26.178;2023-02-28T05:01:31;-2.30;99.90
64226;DHT22;50545;56.064;26.178;2023-02-28T05:04:01;-2.20;99.90
64226;DHT22;50545;56.064;26.178;2023-02-28T05:06:31;-2.10;99.90
64226;DHT22;50545;56.064;26.178;2023-02-28T05:08:59;-2.10;99.90
64226;DHT22;50545;56.064;26.178;2023-02-28T05:11:31;-2.00;99.90
64226;DHT22;50545;56.064;26.178;2023-02-28T05:14:07;-2.00;99.90
64226;DHT22;50545;56.064;26.178;2023-02-28T05:16:36;-1.90;99.90
64226;DHT22;50545;56.064;26.178;2023-02-28T05:19:03;-1.80;99.90
64226;DHT22;50545;56.064;26.178;2023-02-28T05:21:34;-1.80;99.90
64226;DHT22;50545;56.064;26.178;2023-02-28T05:24:12;-1.90;99.90
64226;DHT22;50545;56.064;26.178;2023-02-28T05:26:41;-1.80;99.90
64226;DHT22;50545;56.064;26.178;2023-02-28T05:29:09;-1.80;99.90
64226;DHT22;50545;56.064;26.178;2023-02-28T05:31:37;-1.80;99.90
64226;DHT22;50545;56.064;26.178;2023-02-28T05:34:05;-1.80;99.90
64226;DHT22;50545;56.064;26.178;2023-02-28T05:36:32;-1.80;99.90
64226;DHT22;50545;56.064;26.178;2023-02-28T05:39:00;-1.70;99.90
64226;DHT22;50545;56.064;26.178;2023-02-28T05:41:27;-1.70;99.90
64226;DHT22;50545;56.064;26.178;2023-02-28T05:43:55;-1.70;99.90
64226;DHT22;50545;56.064;26.178;2023-02-28T05:46:22;-1.60;99.90
64226;DHT22;50545;56.064;26.178;2023-02-28T05:48:49;-1.60;99.90
64226;DHT22;50545;56.064;26.178;2023-02-28T05:51:17;-1.50;99.90
64226;DHT22;50545;56.064;26.178;2023-02-28T05:53:44;-1.40;99.90
64226;DHT22;50545;56.064;26.178;2023-02-28T05:56:12;-1.40;99.90
64226;DHT22;50545;56.064;26.178;2023-02-28T05:58:39;-1.40;99.90
64226;DHT22;50545;56.064;26.178;2023-02-28T06:01:37;-1.30;99.90
64226;DHT22;50545;56.064;26.178;2023-02-28T06:04:07;-1.30;99.90
64226;DHT22;50545;56.064;26.178;2023-02-28T06:06:46;-1.30;99.90
64226;DHT22;50545;56.064;26.178;2023-02-28T06:09:14;-1.30;99.90
64226;DHT22;50545;56.064;26.178;2023-02-28T06:11:42;-1.20;99.90
64226;DHT22;50545;56.064;26.178;2023-02-28T06:14:17;-1.20;99.90
64226;DHT22;50545;56.064;26.178;2023-02-28T06:16:44;-1.20;99.90
64226;DHT22;50545;56.064;26.178;2023-02-28T06:19:12;-1.20;99.90
64226;DHT22;50545;56.064;26.178;2023-02-28T06:21:39;-1.20;99.90
64226;DHT22;50545;56.064;26.178;2023-02-28T06:24:07;-1.30;99.90
64226;DHT22;50545;56.064;26.178;2023-02-28T06:26:34;-1.30;99.90
64226;DHT22;50545;56.064;26.178;2023-02-28T06:29:02;-1.30;99.90
64226;DHT22;50545;56.064;26.178;2023-02-28T06:31:30;-1.30;99.90
64226;DHT22;50545;56.064;26.178;2023-02-28T06:33:57;-1.30;99.90
64226;DHT22;50545;56.064;26.178;2023-02-28T06:36:25;-1.30;99.90
64226;DHT22;50545;56.064;26.178;2023-02-28T06:38:52;-1.20;99.90
64226;DHT22;50545;56.064;26.178;2023-02-28T06:41:23;-1.20;99.90
64226;DHT22;50545;56.064;26.178;2023-02-28T06:43:51;-1.20;99.90
64226;DHT22;50545;56.064;26.178;2023-02-28T06:46:19;-1.10;99.90
64226;DHT22;50545;56.064;26.178;2023-02-28T06:48:46;-1.10;99.90
64226;DHT22;50545;56.064;26.178;2023-02-28T06:51:16;-1.00;99.90
64226;DHT22;50545;56.064;26.178;2023-02-28T06:53:44;-1.00;99.90
64226;DHT22;50545;56.064;26.178;2023-02-28T06:56:13;-0.90;99.90
64226;DHT22;50545;56.064;26.178;2023-02-28T06:58:41;-0.80;99.90
64226;DHT22;50545;56.064;26.178;2023-02-28T07:01:08;-0.80;99.90
64226;DHT22;50545;56.064;26.178;2023-02-28T07:03:36;-0.70;99.90
64226;DHT22;50545;56.064;26.178;2023-02-28T07:06:05;-0.60;99.90
64226;DHT22;50545;56.064;26.178;2023-02-28T07:08:34;-0.60;99.90
64226;DHT22;50545;56.064;26.178;2023-02-28T07:11:02;-0.50;99.90
64226;DHT22;50545;56.064;26.178;2023-02-28T07:13:30;-0.40;99.90
64226;DHT22;50545;56.064;26.178;2023-02-28T07:16:02;-0.30;99.90
64226;DHT22;50545;56.064;26.178;2023-02-28T07:18:30;-0.20;99.90
64226;DHT22;50545;56.064;26.178;2023-02-28T07:20:58;0.00;99.90
64226;DHT22;50545;56.064;26.178;2023-02-28T07:23:25;0.10;99.90
64226;DHT22;50545;56.064;26.178;2023-02-28T07:25:52;0.10;99.90
64226;DHT22;50545;56.064;26.178;2023-02-28T07:28:20;0.20;99.90
64226;DHT22;50545;56.064;26.178;2023-02-28T07:30:47;0.30;99.90
64226;DHT22;50545;56.064;26.178;2023-02-28T07:33:15;0.40;99.90
64226;DHT22;50545;56.064;26.178;2023-02-28T07:35:42;0.50;99.90
64226;DHT22;50545;56.064;26.178;2023-02-28T07:38:09;0.60;99.90
64226;DHT22;50545;56.064;26.178;2023-02-28T07:40:37;0.70;99.90
64226;DHT22;50545;56.064;26.178;2023-02-28T07:43:04;0.70;99.90
64226;DHT22;50545;56.064;26.178;2023-02-28T07:45:31;0.80;99.90
64226;DHT22;50545;56.064;26.178;2023-02-28T07:48:01;0.80;99.90
64226;DHT22;50545;56.064;26.178;2023-02-28T07:50:28;0.90;99.90
64226;DHT22;50545;56.064;26.178;2023-02-28T07:52:59;0.90;99.90
64226;DHT22;50545;56.064;26.178;2023-02-28T07:55:26;0.90;99.90
64226;DHT22;50545;56.064;26.178;2023-02-28T07:57:54;1.10;99.90
64226;DHT22;50545;56.064;26.178;2023-02-28T08:00:21;1.10;99.90
64226;DHT22;50545;56.064;26.178;2023-02-28T08:02:48;1.10;99.90
64226;DHT22;50545;56.064;26.178;2023-02-28T08:05:15;1.20;99.90
64226;DHT22;50545;56.064;26.178;2023-02-28T08:07:46;1.20;99.90
64226;DHT22;50545;56.064;26.178;2023-02-28T08:10:14;1.20;99.90
64226;DHT22;50545;56.064;26.178;2023-02-28T08:12:41;1.20;99.90
64226;DHT22;50545;56.064;26.178;2023-02-28T08:15:09;1.20;99.90
64226;DHT22;50545;56.064;26.178;2023-02-28T08:17:36;1.20;99.90
64226;DHT22;50545;56.064;26.178;2023-02-28T08:20:03;1.20;99.90
64226;DHT22;50545;56.064;26.178;2023-02-28T08:22:31;1.20;99.90
64226;DHT22;50545;56.064;26.178;2023-02-28T08:24:58;1.30;99.90
64226;DHT22;50545;56.064;26.178;2023-02-28T08:27:25;1.40;99.90
64226;DHT22;50545;56.064;26.178;2023-02-28T08:29:52;1.40;99.90
64226;DHT22;50545;56.064;26.178;2023-02-28T08:32:19;1.40;99.90
64226;DHT22;50545;56.064;26.178;2023-02-28T08:34:56;1.40;99.90
64226;DHT22;50545;56.064;26.178;2023-02-28T08:37:23;1.50;99.90
64226;DHT22;50545;56.064;26.178;2023-02-28T08:39:50;1.50;99.90
64226;DHT22;50545;56.064;26.178;2023-02-28T08:42:21;1.40;99.90
64226;DHT22;50545;56.064;26.178;2023-02-28T08:44:48;1.40;99.90
64226;DHT22;50545;56.064;26.178;2023-02-28T08:47:16;1.40;99.90
64226;DHT22;50545;56.064;26.178;2023-02-28T08:49:43;1.40;99.90
64226;DHT22;50545;56.064;26.178;2023-02-28T08:52:10;1.50;99.90
64226;DHT22;50545;56.064;26.178;2023-02-28T08:54:37;1.50;99.90
64226;DHT22;50545;56.064;26.178;2023-02-28T08:57:04;1.50;99.90
64226;DHT22;50545;56.064;26.178;2023-02-28T08:59:32;1.50;99.90
64226;DHT22;50545;56.064;26.178;2023-02-28T09:01:59;1.60;99.90
64226;DHT22;50545;56.064;26.178;2023-02-28T09:04:26;1.70;99.90
64226;DHT22;50545;56.064;26.178;2023-02-28T09:06:53;1.70;99.90
64226;DHT22;50545;56.064;26.178;2023-02-28T09:09:21;1.70;99.90
64226;DHT22;50545;56.064;26.178;2023-02-28T09:11:48;1.70;99.90
64226;DHT22;50545;56.064;26.178;2023-02-28T09:14:15;1.70;99.90
64226;DHT22;50545;56.064;26.178;2023-02-28T09:16:44;1.70;99.90
64226;DHT22;50545;56.064;26.178;2023-02-28T09:19:12;1.70;99.90
64226;DHT22;50545;56.064;26.178;2023-02-28T09:21:39;1.70;99.90
64226;DHT22;50545;56.064;26.178;2023-02-28T09:24:07;1.70;99.90
64226;DHT22;50545;56.064;26.178;2023-02-28T09:26:34;1.70;99.90
64226;DHT22;50545;56.064;26.178;2023-02-28T09:29:13;1.70;99.90
64226;DHT22;50545;56.064;26.178;2023-02-28T09:31:41;1.80;99.90
64226;DHT22;50545;56.064;26.178;2023-02-28T09:34:08;1.80;99.90
64226;DHT22;50545;56.064;26.178;2023-02-28T09:36:36;1.90;99.90
64226;DHT22;50545;56.064;26.178;2023-02-28T09:39:12;1.90;99.90
64226;DHT22;50545;56.064;26.178;2023-02-28T09:41:44;2.00;99.90
64226;DHT22;50545;56.064;26.178;2023-02-28T09:46:53;2.00;99.90
64226;DHT22;50545;56.064;26.178;2023-02-28T09:49:34;2.20;99.90
64226;DHT22;50545;56.064;26.178;2023-02-28T09:54:51;2.20;99.90
64226;DHT22;50545;56.064;26.178;2023-02-28T09:57:39;2.10;99.90
64226;DHT22;50545;56.064;26.178;2023-02-28T10:09:10;2.30;99.90
64226;DHT22;50545;56.064;26.178;2023-02-28T10:11:30;2.30;99.90
64226;DHT22;50545;56.064;26.178;2023-02-28T10:14:12;2.40;99.90
64226;DHT22;50545;56.064;26.178;2023-02-28T10:16:44;2.60;99.90
64226;DHT22;50545;56.064;26.178;2023-02-28T10:22:12;2.60;99.90
64226;DHT22;50545;56.064;26.178;2023-02-28T10:24:48;2.60;99.90
64226;DHT22;50545;56.064;26.178;2023-02-28T10:27:18;2.60;99.90
64226;DHT22;50545;56.064;26.178;2023-02-28T10:29:48;2.70;99.90
64226;DHT22;50545;56.064;26.178;2023-02-28T10:32:35;2.60;99.90
64226;DHT22;50545;56.064;26.178;2023-02-28T10:35:20;2.60;99.90
64226;DHT22;50545;56.064;26.178;2023-02-28T10:37:59;2.60;99.90
64226;DHT22;50545;56.064;26.178;2023-02-28T10:40:33;2.60;99.90
64226;DHT22;50545;56.064;26.178;2023-02-28T10:43:06;2.60;99.90
64226;DHT22;50545;56.064;26.178;2023-02-28T10:45:59;2.70;99.90
64226;DHT22;50545;56.064;26.178;2023-02-28T10:48:32;2.70;99.90
64226;DHT22;50545;56.064;26.178;2023-02-28T10:51:00;2.80;99.90
64226;DHT22;50545;56.064;26.178;2023-02-28T10:53:38;2.80;99.90
64226;DHT22;50545;56.064;26.178;2023-02-28T10:56:25;2.80;99.90
64226;DHT22;50545;56.064;26.178;2023-02-28T11:01:42;2.80;99.90
64226;DHT22;50545;56.064;26.178;2023-02-28T11:04:19;2.90;99.90
64226;DHT22;50545;56.064;26.178;2023-02-28T11:06:46;2.90;99.90
64226;DHT22;50545;56.064;26.178;2023-02-28T11:09:25;3.00;99.90
64226;DHT22;50545;56.064;26.178;2023-02-28T11:11:56;3.00;99.90
64226;DHT22;50545;56.064;26.178;2023-02-28T11:14:28;3.00;99.90
64226;DHT22;50545;56.064;26.178;2023-02-28T11:17:02;3.00;99.90
64226;DHT22;50545;56.064;26.178;2023-02-28T11:19:43;3.00;99.90
64226;DHT22;50545;56.064;26.178;2023-02-28T11:22:17;3.10;99.90
64226;DHT22;50545;56.064;26.178;2023-02-28T11:24:50;3.20;99.90
64226;DHT22;50545;56.064;26.178;2023-02-28T11:27:45;3.20;99.90
64226;DHT22;50545;56.064;26.178;2023-02-28T11:30:32;3.30;99.90
64226;DHT22;50545;56.064;26.178;2023-02-28T11:33:22;3.30;99.90
64226;DHT22;50545;56.064;26.178;2023-02-28T11:35:51;3.40;99.90
64226;DHT22;50545;56.064;26.178;2023-02-28T11:38:19;3.50;99.90
64226;DHT22;50545;56.064;26.178;2023-02-28T11:43:51;3.50;99.90
64226;DHT22;50545;56.064;26.178;2023-02-28T11:46:39;3.60;99.90
64226;DHT22;50545;56.064;26.178;2023-02-28T11:55:09;3.30;99.90
64226;DHT22;50545;56.064;26.178;2023-02-28T12:03:39;3.30;99.90
64226;DHT22;50545;56.064;26.178;2023-02-28T12:06:22;3.30;99.90
64226;DHT22;50545;56.064;26.178;2023-02-28T12:09:34;3.30;99.90
64226;DHT22;50545;56.064;26.178;2023-02-28T12:12:19;3.30;99.90
64226;DHT22;50545;56.064;26.178;2023-02-28T12:15:29;3.30;99.90
64226;DHT22;50545;56.064;26.178;2023-02-28T12:18:31;3.40;99.90
64226;DHT22;50545;56.064;26.178;2023-02-28T12:27:11;3.60;99.90
64226;DHT22;50545;56.064;26.178;2023-02-28T12:29:58;3.70;99.90
64226;DHT22;50545;56.064;26.178;2023-02-28T12:32:36;3.60;99.90
64226;DHT22;50545;56.064;26.178;2023-02-28T12:35:16;3.60;99.90
64226;DHT22;50545;56.064;26.178;2023-02-28T12:40:44;3.50;99.90
64226;DHT22;50545;56.064;26.178;2023-02-28T12:43:14;3.50;99.90
64226;DHT22;50545;56.064;26.178;2023-02-28T12:45:51;3.50;99.90
64226;DHT22;50545;56.064;26.178;2023-02-28T12:48:29;3.50;99.90
64226;DHT22;50545;56.064;26.178;2023-02-28T12:50:59;3.40;99.90
64226;DHT22;50545;56.064;26.178;2023-02-28T12:58:54;3.40;99.90
64226;DHT22;50545;56.064;26.178;2023-02-28T13:10:53;3.50;99.90
64226;DHT22;50545;56.064;26.178;2023-02-28T13:13:25;3.50;99.90
64226;DHT22;50545;56.064;26.178;2023-02-28T13:16:04;3.50;99.90
64226;DHT22;50545;56.064;26.178;2023-02-28T13:18:40;3.50;99.90
64226;DHT22;50545;56.064;26.178;2023-02-28T13:21:28;3.50;99.90
64226;DHT22;50545;56.064;26.178;2023-02-28T13:23:59;3.50;99.90
64226;DHT22;50545;56.064;26.178;2023-02-28T13:34:37;3.40;99.90
64226;DHT22;50545;56.064;26.178;2023-02-28T13:39:57;3.40;99.90
64226;DHT22;50545;56.064;26.178;2023-02-28T13:47:50;3.60;99.90
64226;DHT22;50545;56.064;26.178;2023-02-28T14:01:48;3.70;99.90
64226;DHT22;50545;56.064;26.178;2023-02-28T14:04:48;3.70;99.90
64226;DHT22;50545;56.064;26.178;2023-02-28T14:07:49;3.70;99.90
64226;DHT22;50545;56.064;26.178;2023-02-28T14:10:31;3.80;99.90
64226;DHT22;50545;56.064;26.178;2023-02-28T14:23:52;3.70;99.90
64226;DHT22;50545;56.064;26.178;2023-02-28T14:26:36;3.60;99.90
64226;DHT22;50545;56.064;26.178;2023-02-28T14:32:01;3.60;99.90
64226;DHT22;50545;56.064;26.178;2023-02-28T14:34:52;3.50;99.90
64226;DHT22;50545;56.064;26.178;2023-02-28T14:37:28;3.50;99.90
64226;DHT22;50545;56.064;26.178;2023-02-28T14:39:57;3.50;99.90
64226;DHT22;50545;56.064;26.178;2023-02-28T14:45:01;3.40;99.90
64226;DHT22;50545;56.064;26.178;2023-02-28T14:47:33;3.50;99.90
64226;DHT22;50545;56.064;26.178;2023-02-28T14:50:02;3.50;99.90
64226;DHT22;50545;56.064;26.178;2023-02-28T14:52:32;3.40;99.90
64226;DHT22;50545;56.064;26.178;2023-02-28T14:55:05;3.40;99.90
64226;DHT22;50545;56.064;26.178;2023-02-28T14:57:40;3.40;99.90
64226;DHT22;50545;56.064;26.178;2023-02-28T15:00:16;3.40;99.90
64226;DHT22;50545;56.064;26.178;2023-02-28T15:02:47;3.30;99.90
64226;DHT22;50545;56.064;26.178;2023-02-28T15:07:45;3.30;99.90
64226;DHT22;50545;56.064;26.178;2023-02-28T15:15:21;3.40;99.90
64226;DHT22;50545;56.064;26.178;2023-02-28T15:18:06;3.30;99.90
64226;DHT22;50545;56.064;26.178;2023-02-28T15:20:43;3.40;99.90
64226;DHT22;50545;56.064;26.178;2023-02-28T15:23:11;3.40;99.90
64226;DHT22;50545;56.064;26.178;2023-02-28T15:25:40;3.30;99.90
64226;DHT22;50545;56.064;26.178;2023-02-28T15:28:17;3.30;99.90
64226;DHT22;50545;56.064;26.178;2023-02-28T15:31:19;3.30;99.90
64226;DHT22;50545;56.064;26.178;2023-02-28T15:33:55;3.30;99.90
64226;DHT22;50545;56.064;26.178;2023-02-28T15:36:29;3.30;99.90
64226;DHT22;50545;56.064;26.178;2023-02-28T15:38:59;3.30;99.90
64226;DHT22;50545;56.064;26.178;2023-02-28T15:41:41;3.30;99.90
64226;DHT22;50545;56.064;26.178;2023-02-28T15:44:28;3.30;99.90
64226;DHT22;50545;56.064;26.178;2023-02-28T15:47:07;3.20;99.90
64226;DHT22;50545;56.064;26.178;2023-02-28T15:49:56;3.20;99.90
64226;DHT22;50545;56.064;26.178;2023-02-28T15:52:42;3.20;99.90
64226;DHT22;50545;56.064;26.178;2023-02-28T15:55:25;3.20;99.90
64226;DHT22;50545;56.064;26.178;2023-02-28T15:57:55;3.20;99.90
64226;DHT22;50545;56.064;26.178;2023-02-28T16:00:30;3.20;99.90
64226;DHT22;50545;56.064;26.178;2023-02-28T16:02:59;3.20;99.90
64226;DHT22;50545;56.064;26.178;2023-02-28T16:05:29;3.20;99.90
64226;DHT22;50545;56.064;26.178;2023-02-28T16:08:14;3.10;99.90
64226;DHT22;50545;56.064;26.178;2023-02-28T16:10:41;3.10;99.90
64226;DHT22;50545;56.064;26.178;2023-02-28T16:13:09;3.10;99.90
64226;DHT22;50545;56.064;26.178;2023-02-28T16:15:41;3.10;99.90
64226;DHT22;50545;56.064;26.178;2023-02-28T16:18:11;3.10;99.90
64226;DHT22;50545;56.064;26.178;2023-02-28T16:20:39;3.00;99.90
64226;DHT22;50545;56.064;26.178;2023-02-28T16:23:06;3.00;99.90
64226;DHT22;50545;56.064;26.178;2023-02-28T16:25:37;3.00;99.90
64226;DHT22;50545;56.064;26.178;2023-02-28T16:28:15;3.00;99.90
64226;DHT22;50545;56.064;26.178;2023-02-28T16:30:44;3.00;99.90
64226;DHT22;50545;56.064;26.178;2023-02-28T16:33:12;3.00;99.90
64226;DHT22;50545;56.064;26.178;2023-02-28T16:35:39;3.00;99.90
64226;DHT22;50545;56.064;26.178;2023-02-28T16:38:06;3.00;99.90
64226;DHT22;50545;56.064;26.178;2023-02-28T16:40:35;3.00;99.90
64226;DHT22;50545;56.064;26.178;2023-02-28T16:43:19;2.90;99.90
64226;DHT22;50545;56.064;26.178;2023-02-28T16:45:56;3.00;99.90
64226;DHT22;50545;56.064;26.178;2023-02-28T16:48:27;3.00;99.90
64226;DHT22;50545;56.064;26.178;2023-02-28T16:50:54;3.00;99.90
64226;DHT22;50545;56.064;26.178;2023-02-28T16:53:21;2.90;99.90
64226;DHT22;50545;56.064;26.178;2023-02-28T16:55:48;2.90;99.90
64226;DHT22;50545;56.064;26.178;2023-02-28T16:58:17;2.90;99.90
64226;DHT22;50545;56.064;26.178;2023-02-28T17:00:46;2.90;99.90
64226;DHT22;50545;56.064;26.178;2023-02-28T17:03:26;2.90;99.90
64226;DHT22;50545;56.064;26.178;2023-02-28T17:05:59;2.80;99.90
64226;DHT22;50545;56.064;26.178;2023-02-28T17:08:27;2.80;99.90
64226;DHT22;50545;56.064;26.178;2023-02-28T17:10:56;2.80;99.90
64226;DHT22;50545;56.064;26.178;2023-02-28T17:13:23;2.80;99.90
64226;DHT22;50545;56.064;26.178;2023-02-28T17:15:50;2.80;99.90
64226;DHT22;50545;56.064;26.178;2023-02-28T17:18:19;2.80;99.90
64226;DHT22;50545;56.064;26.178;2023-02-28T17:20:48;2.80;99.90
64226;DHT22;50545;56.064;26.178;2023-02-28T17:23:16;2.80;99.90
64226;DHT22;50545;56.064;26.178;2023-02-28T17:25:43;2.80;99.90
64226;DHT22;50545;56.064;26.178;2023-02-28T17:28:23;2.80;99.90
64226;DHT22;50545;56.064;26.178;2023-02-28T17:30:51;2.80;99.90
64226;DHT22;50545;56.064;26.178;2023-02-28T17:33:18;2.80;99.90
64226;DHT22;50545;56.064;26.178;2023-02-28T17:35:45;2.80;99.90
64226;DHT22;50545;56.064;26.178;2023-02-28T17:38:16;2.80;99.90
64226;DHT22;50545;56.064;26.178;2023-02-28T17:40:44;2.80;99.90
64226;DHT22;50545;56.064;26.178;2023-02-28T17:43:12;2.80;99.90
64226;DHT22;50545;56.064;26.178;2023-02-28T17:45:43;2.80;99.90
64226;DHT22;50545;56.064;26.178;2023-02-28T17:48:11;2.80;99.90
64226;DHT22;50545;56.064;26.178;2023-02-28T17:50:39;2.80;99.90
64226;DHT22;50545;56.064;26.178;2023-02-28T17:53:06;2.80;99.90
64226;DHT22;50545;56.064;26.178;2023-02-28T17:55:33;2.90;99.90
64226;DHT22;50545;56.064;26.178;2023-02-28T17:58:01;2.80;99.90
64226;DHT22;50545;56.064;26.178;2023-02-28T18:00:29;2.80;99.90
64226;DHT22;50545;56.064;26.178;2023-02-28T18:02:59;2.90;99.90
64226;DHT22;50545;56.064;26.178;2023-02-28T18:05:27;2.80;99.90
64226;DHT22;50545;56.064;26.178;2023-02-28T18:07:54;2.90;99.90
64226;DHT22;50545;56.064;26.178;2023-02-28T18:10:21;2.90;99.90
64226;DHT22;50545;56.064;26.178;2023-02-28T18:12:50;2.80;99.90
64226;DHT22;50545;56.064;26.178;2023-02-28T18:15:20;2.80;99.90
64226;DHT22;50545;56.064;26.178;2023-02-28T18:17:48;2.80;99.90